Time;durP1;ratioP1;P1;durP2;ratioP2;P2;SDS_P1;SDS_P2;PMS_P1;PMS_P2;Temp;Humidity;BMP_temperature;BMP_pressure;BME280_temperature;BME280_humidity;BME280_pressure;Samples;Min_cycle;Max_cycle;Signal;HPM_P1;HPM_P2
2022/11/02 00:00:40;;;;;;;10.82;2.20;;;;;;;8.86;100.00;99437.06;4951225;28;20058;-87
2022/11/02 00:03:06;;;;;;;8.45;1.90;;;;;;;8.97;100.00;99432.13;4953992;29;20059;-88
2022/11/02 00:05:34;;;;;;;8.38;1.90;;;;;;;8.92;100.00;99416.69;4940219;29;20138;-89
2022/11/02 00:08:01;;;;;;;14.20;2.55;;;;;;;8.95;100.00;99425.28;4956476;28;20055;-88
2022/11/02 00:10:28;;;;;;;11.57;1.98;;;;;;;8.68;100.00;99405.75;4933337;29;20051;-88
2022/11/02 00:12:55;;;;;;;6.38;1.80;;;;;;;9.03;100.00;99446.59;4928661;29;20082;-88
2022/11/02 00:15:25;;;;;;;9.75;2.75;;;;;;;8.92;100.00;99415.84;4953725;29;20059;-88
2022/11/02 00:18:02;;;;;;;10.10;1.98;;;;;;;8.99;100.00;99430.25;4936780;29;20047;-88
2022/11/02 00:20:30;;;;;;;5.20;1.50;;;;;;;9.02;100.00;99431.88;4948357;29;20573;-88
2022/11/02 00:23:00;;;;;;;8.48;1.70;;;;;;;8.92;100.00;99432.38;4952004;29;20157;-88
2022/11/02 00:25:28;;;;;;;8.73;1.88;;;;;;;8.84;100.00;99449.34;4936324;29;20059;-87
2022/11/02 00:27:55;;;;;;;8.25;1.67;;;;;;;8.90;100.00;99430.75;4922670;29;20059;-88
2022/11/02 00:30:22;;;;;;;8.02;2.05;;;;;;;8.78;100.00;99397.44;4935941;29;20390;-87
2022/11/02 00:32:50;;;;;;;7.43;1.80;;;;;;;8.96;100.00;99414.78;4935254;29;20047;-86
2022/11/02 00:35:16;;;;;;;6.03;1.85;;;;;;;9.13;100.00;99453.88;4952977;29;20051;-87
2022/11/02 00:37:43;;;;;;;12.38;2.80;;;;;;;8.99;100.00;99450.31;4935352;29;20060;-88
2022/11/02 00:40:10;;;;;;;8.23;1.75;;;;;;;9.04;100.00;99448.31;4935510;29;20126;-87
2022/11/02 00:42:37;;;;;;;10.93;2.38;;;;;;;9.06;100.00;99462.13;4952826;29;20111;-87
2022/11/02 00:45:05;;;;;;;14.48;1.90;;;;;;;9.10;100.00;99456.69;4935682;29;20649;-88
2022/11/02 00:47:32;;;;;;;10.25;2.47;;;;;;;9.12;100.00;99470.50;4931832;29;20103;-87
2022/11/02 00:49:59;;;;;;;8.35;1.55;;;;;;;8.92;100.00;99442.81;4951372;29;20055;-87
2022/11/02 00:52:26;;;;;;;8.57;1.50;;;;;;;9.01;100.00;99461.50;4950621;29;20110;-87
2022/11/02 00:54:52;;;;;;;7.20;1.50;;;;;;;8.92;100.00;99458.47;4952482;28;20043;-88
2022/11/02 00:57:19;;;;;;;6.93;1.83;;;;;;;8.86;100.00;99458.78;4944328;29;20044;-88
2022/11/02 00:59:46;;;;;;;7.20;1.60;;;;;;;8.84;100.00;99458.00;4948476;29;20554;-88
2022/11/02 01:02:12;;;;;;;6.45;1.50;;;;;;;8.81;100.00;99455.53;4953832;29;20482;-88
2022/11/02 01:04:39;;;;;;;5.55;1.60;;;;;;;8.71;100.00;99434.31;4967426;28;20051;-89
2022/11/02 01:07:06;;;;;;;7.60;2.35;;;;;;;8.90;100.00;99467.28;4961478;28;20545;-89
2022/11/02 01:09:33;;;;;;;8.95;1.98;;;;;;;8.72;100.00;99475.13;4952412;29;20059;-88
2022/11/02 01:12:00;;;;;;;8.05;1.52;;;;;;;8.51;100.00;99442.28;4953933;28;20051;-88
2022/11/02 01:14:26;;;;;;;7.15;1.70;;;;;;;8.67;100.00;99471.06;4956706;28;20054;-89
2022/11/02 01:16:53;;;;;;;5.95;1.33;;;;;;;8.63;100.00;99462.53;4950087;28;20480;-89
2022/11/02 01:19:20;;;;;;;5.00;1.50;;;;;;;8.41;100.00;99443.63;4943847;29;20059;-89
2022/11/02 01:21:47;;;;;;;8.45;1.50;;;;;;;8.44;100.00;99461.75;4966907;28;20051;-88
2022/11/02 01:24:14;;;;;;;6.22;2.85;;;;;;;8.39;100.00;99453.28;4957504;29;20131;-89
2022/11/02 01:26:40;;;;;;;7.50;2.22;;;;;;;8.36;100.00;99446.47;4956942;29;20410;-89
2022/11/02 01:29:07;;;;;;;4.85;1.58;;;;;;;8.45;100.00;99477.34;4939902;29;20390;-89
2022/11/02 01:31:34;;;;;;;8.07;1.90;;;;;;;8.32;100.00;99455.34;4955388;29;20051;-89
2022/11/02 01:34:01;;;;;;;5.78;1.48;;;;;;;8.44;100.00;99454.78;4956265;29;20043;-89
2022/11/02 01:36:27;;;;;;;9.60;2.00;;;;;;;8.53;100.00;99466.53;4945263;29;20051;-89
2022/11/02 01:38:54;;;;;;;5.68;1.50;;;;;;;8.29;100.00;99438.09;4939091;29;20106;-89
2022/11/02 01:41:21;;;;;;;5.00;1.40;;;;;;;8.68;100.00;99496.25;4939761;29;20066;-89
2022/11/02 01:43:52;;;;;;;6.63;1.77;;;;;;;8.53;100.00;99470.00;4956743;29;20047;-89
2022/11/02 01:46:30;;;;;;;7.47;1.58;;;;;;;8.67;100.00;99487.53;4940097;29;20051;-89
2022/11/02 01:49:05;;;;;;;8.70;1.90;;;;;;;8.89;100.00;99510.00;4956198;29;20054;-89
2022/11/02 01:51:36;;;;;;;8.02;1.52;;;;;;;8.81;100.00;99489.47;4939000;29;20053;-89
2022/11/02 01:54:24;;;;;;;6.38;1.63;;;;;;;8.89;100.00;99510.00;4932917;29;20062;-89
2022/11/02 01:56:55;;;;;;;6.18;1.77;;;;;;;8.79;100.00;99493.94;4938670;29;20095;-89
2022/11/02 01:59:29;;;;;;;5.60;1.60;;;;;;;8.90;100.00;99502.06;4936962;29;20130;-88
2022/11/02 02:01:56;;;;;;;3.85;1.30;;;;;;;8.86;100.00;99489.25;4956134;29;20513;-89
2022/11/02 02:04:24;;;;;;;5.35;1.30;;;;;;;8.77;100.00;99480.13;4939172;29;20058;-88
2022/11/02 02:06:55;;;;;;;9.27;1.52;;;;;;;8.80;100.00;99482.59;4938959;29;20102;-89
2022/11/02 02:09:23;;;;;;;10.23;1.70;;;;;;;8.83;100.00;99482.41;4937219;29;20102;-89
2022/11/02 02:11:50;;;;;;;6.50;1.40;;;;;;;8.82;100.00;99483.34;4955061;29;20062;-89
2022/11/02 02:14:19;;;;;;;5.07;1.30;;;;;;;9.04;100.00;99503.97;4956678;29;20043;-88
2022/11/02 02:17:00;;;;;;;5.63;1.25;;;;;;;9.12;100.00;99506.22;4956101;29;20134;-88
2022/11/02 02:19:39;;;;;;;5.68;1.60;;;;;;;9.19;100.00;99514.56;4955388;29;20114;-89
2022/11/02 02:22:06;;;;;;;7.35;1.42;;;;;;;9.02;100.00;99484.94;4955095;29;20051;-89
2022/11/02 02:24:43;;;;;;;6.18;1.40;;;;;;;9.33;100.00;99499.03;4938260;29;20090;-89
2022/11/02 02:27:15;;;;;;;5.10;1.42;;;;;;;9.34;100.00;99502.50;4938267;29;20052;-89
2022/11/02 02:30:00;;;;;;;5.80;1.35;;;;;;;9.24;100.00;99491.66;4942450;29;20051;-89
2022/11/02 02:32:47;;;;;;;7.32;1.40;;;;;;;9.40;100.00;99510.84;4954017;29;20051;-89
2022/11/02 02:35:40;;;;;;;5.13;1.30;;;;;;;9.17;100.00;99501.59;4954956;29;20050;-89
2022/11/02 02:38:28;;;;;;;8.02;2.08;;;;;;;9.10;100.00;99503.69;4939387;29;20051;-89
2022/11/02 02:40:59;;;;;;;6.35;1.52;;;;;;;9.15;100.00;99521.69;4953343;29;20051;-89
2022/11/02 02:43:35;;;;;;;6.57;1.70;;;;;;;8.98;100.00;99501.69;4938323;29;20051;-89
2022/11/02 02:46:12;;;;;;;9.30;1.80;;;;;;;9.26;100.00;99524.63;4938247;29;20134;-89
2022/11/02 02:48:41;;;;;;;7.32;1.60;;;;;;;9.28;100.00;99527.16;4964206;28;20058;-89
2022/11/02 02:51:13;;;;;;;7.68;1.50;;;;;;;9.39;100.00;99539.66;4937726;29;20482;-88
2022/11/02 02:53:50;;;;;;;4.45;1.40;;;;;;;9.34;100.00;99534.66;4938057;29;20138;-89
2022/11/02 02:56:22;;;;;;;6.72;1.20;;;;;;;9.27;100.00;99515.00;4938199;29;20051;-89
2022/11/02 02:59:03;;;;;;;6.13;1.77;;;;;;;9.23;100.00;99529.16;4936929;29;20051;-88
2022/11/02 03:01:32;;;;;;;3.13;1.10;;;;;;;9.20;100.00;99538.00;4937588;29;20051;-89
2022/11/02 03:03:58;;;;;;;7.15;1.70;;;;;;;9.17;100.00;99512.06;4955122;29;20051;-89
2022/11/02 03:06:33;;;;;;;6.43;1.90;;;;;;;9.23;100.00;99547.44;4937421;29;20050;-87
2022/11/02 03:09:11;;;;;;;6.93;1.38;;;;;;;9.26;100.00;99557.72;4937077;29;20055;-89
2022/11/02 03:11:57;;;;;;;7.75;1.65;;;;;;;9.35;100.00;99559.00;4954165;29;20062;-88
2022/11/02 03:14:49;;;;;;;8.07;2.20;;;;;;;9.45;100.00;99566.31;4955070;29;20054;-89
2022/11/02 03:17:18;;;;;;;6.35;1.52;;;;;;;9.46;100.00;99559.31;4953637;29;20062;-89
2022/11/02 03:19:59;;;;;;;7.35;1.20;;;;;;;9.40;100.00;99567.47;4954357;29;20055;-88
2022/11/02 03:22:28;;;;;;;8.95;1.70;;;;;;;9.37;100.00;99581.53;4940850;29;20055;-88
2022/11/02 03:25:07;;;;;;;8.52;1.42;;;;;;;9.36;100.00;99574.63;4949559;29;20067;-88
2022/11/02 03:27:41;;;;;;;5.28;1.45;;;;;;;9.28;100.00;99580.25;4955019;28;20454;-88
2022/11/02 03:30:20;;;;;;;5.22;1.42;;;;;;;9.31;100.00;99567.03;4953549;29;20105;-88
2022/11/02 03:33:06;;;;;;;9.02;1.88;;;;;;;9.19;100.00;99557.22;4950045;29;20383;-89
2022/11/02 03:35:42;;;;;;;8.43;1.50;;;;;;;9.32;100.00;99584.38;4945699;29;20048;-88
2022/11/02 03:38:18;;;;;;;7.97;1.60;;;;;;;9.51;100.00;99580.84;4953343;29;20058;-88
2022/11/02 03:40:49;;;;;;;6.45;1.38;;;;;;;9.18;100.00;99539.84;4937743;29;20051;-89
2022/11/02 03:43:19;;;;;;;6.43;1.60;;;;;;;9.28;100.00;99561.97;4937823;29;20077;-87
2022/11/02 03:45:53;;;;;;;6.22;1.23;;;;;;;9.38;100.00;99578.00;4953708;29;20051;-89
2022/11/02 03:48:24;;;;;;;3.63;1.35;;;;;;;9.18;100.00;99583.41;4952608;29;20102;-88
2022/11/02 03:50:53;;;;;;;4.13;1.30;;;;;;;9.17;100.00;99592.13;4932975;29;20479;-88
2022/11/02 03:53:29;;;;;;;7.95;1.60;;;;;;;9.07;100.00;99576.94;4950567;29;20051;-88
2022/11/02 03:56:05;;;;;;;5.32;1.33;;;;;;;9.11;100.00;99580.25;4952004;28;20059;-88
2022/11/02 03:58:34;;;;;;;4.43;1.40;;;;;;;9.10;100.00;99582.00;4933151;29;20439;-88
2022/11/02 04:01:09;;;;;;;3.85;1.30;;;;;;;9.13;100.00;99599.28;4931702;29;20051;-89
2022/11/02 04:03:43;;;;;;;6.47;1.65;;;;;;;8.95;100.00;99582.75;4952554;29;20553;-88
2022/11/02 04:06:11;;;;;;;4.55;1.17;;;;;;;8.94;100.00;99596.72;4936035;29;20048;-88
2022/11/02 04:08:41;;;;;;;4.25;1.33;;;;;;;8.93;100.00;99611.56;4952343;29;20050;-88
2022/11/02 04:16:38;;;;;;;6.63;1.40;;;;;;;8.40;100.00;99582.78;4957273;28;20066;-88
2022/11/02 04:27:21;;;;;;;3.88;1.40;;;;;;;8.39;100.00;99615.84;4952645;29;20047;-87
2022/11/02 04:29:48;;;;;;;4.88;1.20;;;;;;;8.42;100.00;99620.94;4935731;29;20055;-88
2022/11/02 04:33:31;;;;;;;5.30;1.45;;;;;;;8.46;100.00;99614.66;4935963;29;20147;-88
2022/11/02 04:35:03;;;;;;;7.80;1.27;;;;;;;8.48;100.00;99623.28;4953379;29;20047;-88
2022/11/02 04:40:16;;;;;;;2.17;1.00;;;;;;;8.35;100.00;99617.72;4953102;29;20055;-88
2022/11/02 04:42:45;;;;;;;4.85;1.27;;;;;;;8.40;100.00;99627.97;4935911;29;20102;-88
2022/11/02 04:45:12;;;;;;;4.95;1.10;;;;;;;8.29;100.00;99605.00;4935870;29;20513;-88
2022/11/02 04:47:39;;;;;;;7.07;1.42;;;;;;;8.35;100.00;99632.53;4942991;29;20105;-87
2022/11/02 04:50:06;;;;;;;4.80;1.15;;;;;;;8.31;100.00;99637.06;4935171;29;20054;-88
2022/11/02 04:52:33;;;;;;;2.75;1.10;;;;;;;8.10;100.00;99625.00;4953227;29;20055;-88
2022/11/02 04:54:59;;;;;;;2.10;1.10;;;;;;;8.18;100.00;99643.75;4937425;28;20097;-89
2022/11/02 04:57:26;;;;;;;2.08;1.00;;;;;;;7.99;100.00;99631.53;4957109;28;20051;-88
2022/11/02 04:59:53;;;;;;;1.83;1.00;;;;;;;8.05;100.00;99656.47;4939240;29;20105;-88
2022/11/02 05:02:19;;;;;;;3.35;0.90;;;;;;;8.17;100.00;99668.13;4935045;29;20079;-88
2022/11/02 05:04:46;;;;;;;2.58;0.98;;;;;;;8.27;100.00;99672.03;4935595;29;20486;-88
2022/11/02 05:07:13;;;;;;;3.38;1.27;;;;;;;8.44;100.00;99683.47;4940838;29;20110;-88
2022/11/02 05:09:41;;;;;;;1.75;1.08;;;;;;;8.42;100.00;99698.34;4941454;29;20113;-88
2022/11/02 05:12:08;;;;;;;3.60;1.27;;;;;;;8.31;100.00;99680.56;4951817;29;20051;-88
2022/11/02 05:14:35;;;;;;;3.78;1.20;;;;;;;8.36;100.00;99692.47;4953103;29;20055;-88
2022/11/02 05:17:02;;;;;;;1.63;0.90;;;;;;;8.02;100.00;99660.97;4935733;29;20447;-88
2022/11/02 05:19:28;;;;;;;3.72;1.20;;;;;;;8.19;100.00;99684.56;4935614;29;20086;-88
2022/11/02 05:21:55;;;;;;;3.45;1.00;;;;;;;8.07;100.00;99674.66;4943379;29;20739;-89
2022/11/02 05:24:22;;;;;;;5.03;1.10;;;;;;;7.83;100.00;99627.09;4944287;29;20462;-88
2022/11/02 05:26:49;;;;;;;2.22;1.05;;;;;;;8.14;100.00;99687.38;4953141;28;20569;-89
2022/11/02 05:29:19;;;;;;;2.20;1.10;;;;;;;7.99;100.00;99693.25;4936388;29;20050;-91
2022/11/02 05:31:46;;;;;;;2.25;1.00;;;;;;;7.92;100.00;99674.44;4932851;29;20059;-89
2022/11/02 05:34:13;;;;;;;1.40;1.00;;;;;;;7.94;100.00;99695.22;4931719;29;20540;-90
2022/11/02 05:36:39;;;;;;;3.92;1.10;;;;;;;7.47;100.00;99662.47;4952704;28;20047;-87
2022/11/02 05:39:06;;;;;;;2.63;1.13;;;;;;;7.22;100.00;99647.00;4934344;29;20051;-87
2022/11/02 05:41:33;;;;;;;3.15;1.10;;;;;;;7.48;100.00;99690.19;4952692;29;20047;-87
2022/11/02 05:44:00;;;;;;;3.13;1.00;;;;;;;7.64;100.00;99684.34;4950851;29;20094;-87
2022/11/02 05:46:26;;;;;;;4.70;1.00;;;;;;;7.72;100.00;99680.50;4940976;29;20054;-87
2022/11/02 05:48:53;;;;;;;2.17;1.00;;;;;;;7.81;100.00;99668.84;4941630;29;20051;-87
2022/11/02 05:51:20;;;;;;;4.90;0.98;;;;;;;7.96;100.00;99707.25;4953262;29;20070;-89
2022/11/02 05:53:47;;;;;;;3.22;1.00;;;;;;;7.73;100.00;99670.91;4938858;29;20637;-92
2022/11/02 05:56:13;;;;;;;3.25;1.15;;;;;;;7.74;100.00;99720.38;4938149;29;20120;-92
2022/11/02 05:58:43;;;;;;;2.20;1.10;;;;;;;7.74;100.00;99724.75;4944133;29;20055;-92
2022/11/02 06:01:10;;;;;;;3.58;1.00;;;;;;;7.52;100.00;99698.72;4937371;29;20047;-92
2022/11/02 06:03:37;;;;;;;1.75;0.98;;;;;;;7.50;100.00;99721.38;4957566;28;20055;-91
2022/11/02 06:06:06;;;;;;;1.33;0.90;;;;;;;7.30;100.00;99698.78;4939671;28;20043;-91
2022/11/02 06:08:34;;;;;;;2.17;1.00;;;;;;;7.43;100.00;99715.56;4958279;28;20058;-91
2022/11/02 06:11:12;;;;;;;1.73;1.00;;;;;;;7.31;100.00;99713.47;4936310;28;20055;-89
2022/11/02 06:13:40;;;;;;;2.60;1.02;;;;;;;7.18;100.00;99729.59;4947829;28;20051;-90
2022/11/02 06:16:09;;;;;;;2.42;1.10;;;;;;;7.04;100.00;99742.28;4942528;29;20047;-87
2022/11/02 06:18:37;;;;;;;4.75;1.10;;;;;;;6.68;100.00;99692.53;4938358;29;20093;-88
2022/11/02 06:21:05;;;;;;;1.75;0.93;;;;;;;6.97;100.00;99720.03;4954890;28;20058;-89
2022/11/02 06:23:32;;;;;;;4.00;1.15;;;;;;;7.05;100.00;99728.38;4938708;29;20051;-91
2022/11/02 06:26:00;;;;;;;1.55;1.00;;;;;;;7.14;100.00;99717.59;4958813;28;20047;-90
2022/11/02 06:28:28;;;;;;;2.75;0.93;;;;;;;7.10;100.00;99738.59;4951911;29;20047;-91
2022/11/02 06:30:55;;;;;;;1.98;1.00;;;;;;;7.13;100.00;99747.13;4938151;29;20055;-86
2022/11/02 06:33:23;;;;;;;1.70;0.93;;;;;;;7.26;100.00;99778.78;4962249;29;20047;-92
2022/11/02 06:36:04;;;;;;;2.75;1.13;;;;;;;7.38;100.00;99803.47;4969616;28;20058;-90
2022/11/02 06:38:45;;;;;;;5.07;1.00;;;;;;;7.32;100.00;99804.56;4958730;29;20144;-89
2022/11/02 06:41:22;;;;;;;3.30;1.38;;;;;;;7.02;100.00;99746.72;4952072;29;20043;-90
2022/11/02 06:44:03;;;;;;;1.15;0.90;;;;;;;7.00;100.00;99758.94;4962710;28;20461;-88
2022/11/02 06:46:31;;;;;;;2.05;1.10;;;;;;;6.98;100.00;99735.56;4948070;29;20051;-88
2022/11/02 06:48:58;;;;;;;6.15;1.05;;;;;;;7.04;100.00;99760.50;4962991;28;20054;-88
2022/11/02 06:51:25;;;;;;;2.30;1.00;;;;;;;7.15;100.00;99758.38;4963984;29;20062;-88
2022/11/02 06:53:52;;;;;;;2.22;0.90;;;;;;;6.89;100.00;99774.97;4946490;28;20051;-91
2022/11/02 06:56:33;;;;;;;1.17;0.90;;;;;;;6.81;100.00;99746.63;4959959;28;20125;-88
2022/11/02 06:59:01;;;;;;;2.65;0.95;;;;;;;7.08;100.00;99774.25;4940384;29;20051;-86
2022/11/02 07:01:28;;;;;;;1.92;1.00;;;;;;;7.07;100.00;99772.56;4954491;28;20135;-87
2022/11/02 07:03:55;;;;;;;2.25;0.90;;;;;;;7.09;100.00;99783.78;4952476;29;20424;-85
2022/11/02 07:06:21;;;;;;;2.10;0.93;;;;;;;6.96;100.00;99744.38;4973851;28;20034;-86
2022/11/02 07:08:49;;;;;;;1.17;0.80;;;;;;;7.10;100.00;99793.25;4968429;28;20046;-90
2022/11/02 07:11:30;;;;;;;1.35;0.90;;;;;;;7.28;100.00;99818.59;4971972;28;20047;-89
2022/11/02 07:14:11;;;;;;;1.67;0.80;;;;;;;7.20;100.00;99805.03;4949232;28;20067;-90
2022/11/02 07:16:51;;;;;;;2.50;0.98;;;;;;;7.25;100.00;99830.91;4983062;28;20055;-89
2022/11/02 07:19:32;;;;;;;2.22;1.00;;;;;;;7.03;100.00;99801.31;4963133;29;20039;-89
2022/11/02 07:22:13;;;;;;;1.70;1.10;;;;;;;7.25;100.00;99825.69;4972869;28;20040;-90
2022/11/02 07:24:54;;;;;;;2.58;0.80;;;;;;;7.16;100.00;99829.50;4959585;28;20135;-89
2022/11/02 07:27:39;;;;;;;1.20;0.80;;;;;;;7.28;100.00;99815.13;4968373;28;20039;-89
2022/11/02 07:30:19;;;;;;;1.40;0.88;;;;;;;7.23;100.00;99804.91;4967020;28;20051;-88
2022/11/02 07:33:01;;;;;;;2.47;0.90;;;;;;;7.31;100.00;99823.72;4971563;28;20051;-89
2022/11/02 07:35:42;;;;;;;2.33;0.80;;;;;;;7.17;100.00;99794.72;4957184;28;20039;-89
2022/11/02 07:38:23;;;;;;;2.25;0.98;;;;;;;6.94;100.00;99778.25;4955724;28;20043;-89
2022/11/02 07:41:04;;;;;;;1.00;0.80;;;;;;;7.04;100.00;99787.38;4960103;29;20047;-90
2022/11/02 07:43:45;;;;;;;2.97;1.05;;;;;;;7.22;100.00;99831.84;4966902;28;20060;-89
2022/11/02 07:46:26;;;;;;;4.05;1.10;;;;;;;7.23;100.00;99841.38;4967638;28;20041;-90
2022/11/02 07:49:07;;;;;;;2.63;0.90;;;;;;;7.18;100.00;99831.13;4973214;28;20186;-89
2022/11/02 07:51:47;;;;;;;2.60;1.00;;;;;;;7.20;100.00;99818.03;4965234;28;20043;-88
2022/11/02 07:54:28;;;;;;;3.75;1.10;;;;;;;6.92;100.00;99813.88;4957184;29;20043;-88
2022/11/02 07:57:11;;;;;;;2.75;1.00;;;;;;;7.02;100.00;99837.81;4960452;29;20047;-89
2022/11/02 07:59:52;;;;;;;4.45;1.25;;;;;;;7.11;100.00;99814.03;4935110;29;20035;-89
2022/11/02 08:02:33;;;;;;;3.25;0.95;;;;;;;7.34;100.00;99809.69;4974332;29;20066;-89
2022/11/02 08:05:14;;;;;;;4.35;1.17;;;;;;;7.39;100.00;99807.78;4943269;29;20039;-88
2022/11/02 08:08:05;;;;;;;5.75;1.00;;;;;;;7.66;100.00;99781.53;4956385;29;20102;-88
2022/11/02 08:10:48;;;;;;;4.40;1.20;;;;;;;8.33;100.00;99804.75;4955858;29;20059;-89
2022/11/02 08:13:30;;;;;;;2.72;1.00;;;;;;;8.23;100.00;99774.75;4973477;29;20039;-88
2022/11/02 08:16:13;;;;;;;2.08;0.93;;;;;;;8.71;100.00;99767.47;4974786;29;20035;-89
2022/11/02 08:18:53;;;;;;;5.20;1.30;;;;;;;9.25;100.00;99799.78;4960377;29;20119;-88
2022/11/02 08:21:34;;;;;;;3.08;0.98;;;;;;;9.67;100.00;99787.38;4959373;29;20045;-87
2022/11/02 08:24:15;;;;;;;4.93;1.10;;;;;;;10.05;100.00;99780.22;4973740;29;20058;-91
2022/11/02 08:26:56;;;;;;;2.05;0.90;;;;;;;10.41;100.00;99774.06;4941232;28;20059;-89
2022/11/02 08:29:37;;;;;;;3.25;0.90;;;;;;;10.52;100.00;99770.88;4960508;29;20054;-91
2022/11/02 08:32:17;;;;;;;3.53;1.50;;;;;;;10.59;100.00;99767.00;4943552;28;20047;-90
2022/11/02 08:34:58;;;;;;;4.65;1.23;;;;;;;10.26;100.00;99765.19;4969882;29;20027;-90
2022/11/02 08:37:39;;;;;;;5.20;1.30;;;;;;;10.04;100.00;99741.91;4973036;29;20050;-89
2022/11/02 08:40:21;;;;;;;8.40;1.35;;;;;;;10.28;100.00;99778.19;4971059;29;20049;-90
2022/11/02 08:43:05;;;;;;;4.75;1.40;;;;;;;9.91;100.00;99790.53;4959621;29;20054;-89
2022/11/02 08:45:46;;;;;;;;;;;;;;;10.10;100.00;99787.00;4974266;29;20051;-88
2022/11/02 08:48:27;;;;;;;5.20;1.20;;;;;;;9.37;100.00;99787.09;4953708;29;19910;-88
2022/11/02 08:51:08;;;;;;;3.40;1.00;;;;;;;9.24;100.00;99778.97;4957509;29;20098;-88
2022/11/02 08:53:50;;;;;;;4.90;1.10;;;;;;;8.97;100.00;99757.63;4970848;29;20467;-87
2022/11/02 08:56:31;;;;;;;3.97;1.17;;;;;;;9.15;100.00;99805.53;4958130;29;20095;-89
2022/11/02 08:59:13;;;;;;;7.47;1.40;;;;;;;8.89;100.00;99805.81;4962377;29;20050;-88
2022/11/02 09:01:54;;;;;;;5.47;1.25;;;;;;;9.06;100.00;99791.13;4942645;29;20130;-88
2022/11/02 09:04:35;;;;;;;4.38;1.30;;;;;;;8.80;100.00;99795.78;4969259;29;20028;-88
2022/11/02 09:07:16;;;;;;;2.05;1.00;;;;;;;8.91;100.00;99800.53;4973529;29;20111;-89
2022/11/02 09:09:58;;;;;;;3.95;1.35;;;;;;;8.79;100.00;99798.47;4972537;29;20084;-89
2022/11/02 09:12:39;;;;;;;3.60;1.10;;;;;;;8.79;100.00;99793.25;4945667;29;20062;-88
2022/11/02 09:15:21;;;;;;;4.32;1.50;;;;;;;8.72;100.00;99811.78;4960085;29;20039;-89
2022/11/02 09:18:04;;;;;;;4.75;1.30;;;;;;;8.73;100.00;99810.03;4973493;29;20062;-89
2022/11/02 09:20:47;;;;;;;6.28;2.00;;;;;;;8.77;100.00;99802.91;4956689;29;20074;-89
2022/11/02 09:23:28;;;;;;;6.78;1.30;;;;;;;8.85;100.00;99801.66;4953505;29;20055;-88
2022/11/02 09:26:09;;;;;;;3.42;1.10;;;;;;;8.89;100.00;99786.69;4961825;29;20044;-89
2022/11/02 09:28:50;;;;;;;3.67;1.23;;;;;;;8.91;100.00;99790.09;4968865;29;20142;-89
2022/11/02 09:31:31;;;;;;;7.13;1.23;;;;;;;9.05;100.00;99798.13;4973377;29;20039;-89
2022/11/02 09:34:12;;;;;;;2.78;1.00;;;;;;;8.86;100.00;99752.91;4946616;29;20043;-89
2022/11/02 09:36:53;;;;;;;8.40;1.70;;;;;;;8.81;100.00;99784.41;4976821;29;20091;-89
2022/11/02 09:39:34;;;;;;;5.07;1.25;;;;;;;9.10;100.00;99777.88;4962874;29;20039;-89
2022/11/02 09:42:30;;;;;;;5.18;1.35;;;;;;;9.17;100.00;99773.22;4971953;29;20035;-89
2022/11/02 09:45:16;;;;;;;5.88;1.63;;;;;;;9.13;100.00;99741.13;4977298;29;20058;-90
2022/11/02 09:48:02;;;;;;;10.43;1.90;;;;;;;9.09;100.00;99744.81;4949727;29;20066;-89
2022/11/02 09:50:57;;;;;;;7.82;1.75;;;;;;;9.11;100.00;99745.59;4948011;29;20031;-90
2022/11/02 09:54:16;;;;;;;15.13;2.65;;;;;;;9.09;100.00;99736.16;4976691;29;20313;-90
2022/11/02 09:57:03;;;;;;;14.70;2.08;;;;;;;9.08;100.00;99708.34;4939540;29;20050;-90
2022/11/02 09:59:45;;;;;;;14.75;3.05;;;;;;;9.26;100.00;99719.66;4962581;29;20306;-89
2022/11/02 10:02:51;;;;;;;8.68;2.05;;;;;;;9.30;100.00;99711.59;4962479;29;20059;-90
2022/11/02 10:05:42;;;;;;;5.57;1.70;;;;;;;9.21;100.00;99693.78;4963165;29;20055;-89
2022/11/02 10:08:28;;;;;;;10.00;1.95;;;;;;;9.16;100.00;99676.66;4976579;29;20039;-88
2022/11/02 10:11:52;;;;;;;8.10;2.53;;;;;;;9.33;100.00;99689.72;4975861;29;20098;-89
2022/11/02 10:14:37;;;;;;;7.35;2.08;;;;;;;9.74;100.00;99686.81;4957116;29;20044;-90
2022/11/02 10:17:29;;;;;;;5.78;1.70;;;;;;;9.38;100.00;99673.81;4974662;29;20077;-89
2022/11/02 10:20:23;;;;;;;10.20;1.95;;;;;;;9.25;100.00;99670.97;4961576;29;20051;-90
2022/11/02 10:23:16;;;;;;;9.85;1.90;;;;;;;8.96;100.00;99651.47;4974786;29;20050;-89
2022/11/02 10:25:58;;;;;;;7.85;1.80;;;;;;;9.09;100.00;99639.53;4950334;29;20139;-89
2022/11/02 10:28:47;;;;;;;9.37;1.97;;;;;;;9.12;100.00;99637.63;4961185;29;20046;-90
2022/11/02 10:31:33;;;;;;;6.13;1.67;;;;;;;9.42;100.00;99691.03;4951180;29;20289;-89
2022/11/02 10:34:25;;;;;;;11.27;2.10;;;;;;;9.70;100.00;99690.47;4961314;29;20051;-89
2022/11/02 10:37:24;;;;;;;8.25;2.15;;;;;;;9.81;100.00;99692.56;4941789;29;20040;-90
2022/11/02 10:40:14;;;;;;;10.40;2.25;;;;;;;9.81;100.00;99697.78;4960703;29;20052;-88
2022/11/02 10:43:21;;;;;;;12.80;2.10;;;;;;;9.19;100.00;99663.41;4969130;28;20066;-88
2022/11/02 10:46:32;;;;;;;10.63;2.22;;;;;;;9.24;100.00;99698.88;4986488;28;20044;-89
2022/11/02 10:49:25;;;;;;;8.02;1.63;;;;;;;9.32;100.00;99688.88;4964553;29;20035;-90
2022/11/02 10:52:12;;;;;;;8.07;2.28;;;;;;;9.18;100.00;99639.06;4967392;29;20123;-90
2022/11/02 10:54:53;;;;;;;7.25;2.55;;;;;;;9.48;100.00;99675.06;4974780;29;20051;-89
2022/11/02 10:57:38;;;;;;;9.48;2.38;;;;;;;9.29;100.00;99621.09;4975370;29;20035;-89
2022/11/02 11:00:47;;;;;;;7.80;1.95;;;;;;;9.48;100.00;99654.16;4967633;29;20039;-90
2022/11/02 11:03:27;;;;;;;11.32;2.60;;;;;;;9.54;100.00;99645.16;4972567;29;20054;-89
2022/11/02 11:06:11;;;;;;;7.53;1.70;;;;;;;9.65;100.00;99627.13;4941595;29;20036;-89
2022/11/02 11:08:59;;;;;;;7.22;1.52;;;;;;;9.58;100.00;99589.19;4956267;29;20044;-89
2022/11/02 11:11:40;;;;;;;7.00;1.80;;;;;;;9.65;100.00;99617.56;4960922;29;20101;-90
2022/11/02 11:14:22;;;;;;;10.45;1.70;;;;;;;9.87;100.00;99598.97;4960492;28;20039;-89
2022/11/02 11:17:32;;;;;;;14.43;3.47;;;;;;;9.99;100.00;99580.97;4958831;29;20040;-90
2022/11/02 11:20:33;;;;;;;9.35;1.75;;;;;;;10.45;100.00;99570.63;4963993;29;20039;-90
2022/11/02 11:23:14;;;;;;;10.77;1.95;;;;;;;10.34;100.00;99559.88;4963852;29;20043;-88
2022/11/02 11:26:05;;;;;;;9.88;2.10;;;;;;;10.61;100.00;99545.28;4975670;29;20057;-89
2022/11/02 11:28:54;;;;;;;9.15;1.95;;;;;;;10.64;100.00;99536.38;4960897;29;20055;-90
2022/11/02 11:31:35;;;;;;;9.70;2.25;;;;;;;10.61;100.00;99518.25;4965596;29;20035;-89
2022/11/02 11:34:27;;;;;;;9.80;2.05;;;;;;;10.56;100.00;99473.19;4929035;29;20158;-90
2022/11/02 11:37:09;;;;;;;11.70;2.75;;;;;;;10.68;100.00;99514.38;4969042;29;20083;-89
2022/11/02 11:39:55;;;;;;;14.05;3.05;;;;;;;10.80;100.00;99523.25;4985121;28;20043;-89
2022/11/02 11:42:37;;;;;;;16.05;4.43;;;;;;;10.65;100.00;99519.75;4974352;29;20047;-89
2022/11/02 11:45:28;;;;;;;13.40;2.70;;;;;;;10.67;100.00;99506.59;4960765;29;20044;-88
2022/11/02 11:48:09;;;;;;;20.00;2.90;;;;;;;11.27;100.00;99503.06;4954363;29;20040;-89
2022/11/02 11:50:50;;;;;;;17.30;3.75;;;;;;;11.36;100.00;99498.09;4971394;29;20035;-88
2022/11/02 11:53:31;;;;;;;19.77;3.40;;;;;;;11.27;100.00;99443.66;4949885;29;20137;-88
2022/11/02 11:56:25;;;;;;;17.17;3.05;;;;;;;11.30;100.00;99482.78;4967972;28;20032;-89
2022/11/02 11:59:24;;;;;;;16.50;3.53;;;;;;;11.62;100.00;99443.25;4949920;29;20119;-89
2022/11/02 12:02:27;;;;;;;16.38;3.08;;;;;;;11.71;100.00;99439.22;4974653;28;20134;-89
2022/11/02 12:05:16;;;;;;;17.95;3.20;;;;;;;11.49;100.00;99424.84;4974628;28;20046;-88
2022/11/02 12:08:00;;;;;;;19.85;4.43;;;;;;;11.65;100.00;99431.72;4960769;29;20047;-89
2022/11/02 12:10:40;;;;;;;;;;;;;;;11.61;100.00;99430.25;4970401;29;20050;-90
2022/11/02 12:14:02;;;;;;;17.88;4.18;;;;;;;11.56;100.00;99431.38;4974925;29;19998;-89
2022/11/02 12:17:05;;;;;;;15.73;3.25;;;;;;;11.33;100.00;99380.41;4974777;29;20054;-89
2022/11/02 12:20:16;;;;;;;14.80;3.45;;;;;;;11.37;100.00;99426.44;4960773;29;20071;-89
2022/11/02 12:23:18;;;;;;;15.05;3.55;;;;;;;11.70;100.00;99430.47;4964064;29;20050;-89
2022/11/02 12:26:17;;;;;;;17.88;3.03;;;;;;;11.45;100.00;99398.91;4960854;29;20054;-89
2022/11/02 12:29:22;;;;;;;17.65;3.45;;;;;;;11.45;100.00;99394.50;4974362;29;20047;-89
2022/11/02 12:32:26;;;;;;;19.00;3.97;;;;;;;11.40;100.00;99397.41;4974190;29;20031;-89
2022/11/02 12:35:35;;;;;;;17.83;3.60;;;;;;;11.61;100.00;99391.75;4966478;29;20071;-89